createdAt,value
2018-05-25T00:01:44.822Z,22.20
2018-05-25T00:04:13.091Z,20.47
2018-05-25T00:06:41.354Z,19.97
2018-05-25T00:09:09.671Z,20.30
2018-05-25T00:11:40.798Z,19.67
2018-05-25T00:14:09.106Z,21.80
2018-05-25T00:16:37.398Z,19.60
2018-05-25T00:19:05.683Z,20.67
2018-05-25T00:21:34.022Z,19.97
2018-05-25T00:24:03.090Z,21.93
2018-05-25T00:26:31.415Z,18.60
2018-05-25T00:28:59.683Z,19.57
2018-05-25T00:31:28.723Z,19.90
2018-05-25T00:33:57.001Z,19.23
2018-05-25T00:36:25.252Z,19.43
2018-05-25T00:38:53.539Z,18.67
2018-05-25T00:41:21.792Z,19.77
2018-05-25T00:43:50.081Z,20.30
2018-05-25T00:46:18.382Z,20.30
2018-05-25T00:48:47.391Z,19.63
2018-05-25T00:51:15.654Z,19.30
2018-05-25T00:53:43.919Z,19.93
2018-05-25T00:56:12.193Z,19.10
2018-05-25T00:58:40.435Z,22.23
2018-05-25T01:01:09.533Z,21.13
2018-05-25T01:03:38.544Z,18.87
2018-05-25T01:06:06.855Z,18.97
2018-05-25T01:08:35.124Z,19.50
2018-05-25T01:11:03.423Z,18.37
2018-05-25T01:13:31.733Z,19.63
2018-05-25T01:16:00.752Z,18.53
2018-05-25T01:18:29.018Z,17.80
2018-05-25T01:20:57.300Z,20.53
2018-05-25T01:23:25.579Z,18.97
2018-05-25T01:25:53.882Z,21.67
2018-05-25T01:28:22.124Z,18.00
2018-05-25T01:30:50.378Z,17.47
2018-05-25T01:33:19.429Z,19.43
2018-05-25T01:35:47.714Z,18.43
2018-05-25T01:38:15.989Z,18.07
2018-05-25T01:40:44.318Z,21.10
2018-05-25T01:43:13.385Z,20.77
2018-05-25T01:45:41.634Z,20.57
2018-05-25T01:48:09.902Z,20.07
2018-05-25T01:50:38.160Z,18.63
2018-05-25T01:53:06.437Z,20.00
2018-05-25T01:55:42.306Z,21.83
2018-05-25T01:58:10.625Z,21.10
2018-05-25T02:00:38.938Z,21.33
2018-05-25T02:03:07.159Z,20.17
2018-05-25T02:05:35.493Z,21.53
2018-05-25T02:08:03.739Z,20.07
2018-05-25T02:10:32.777Z,19.67
2018-05-25T02:13:01.059Z,19.63
2018-05-25T02:15:29.342Z,22.80
2018-05-25T02:17:57.599Z,20.47
2018-05-25T02:20:25.891Z,19.60
2018-05-25T02:22:54.178Z,20.77
2018-05-25T02:25:23.278Z,20.17
2018-05-25T02:27:51.558Z,20.77
2018-05-25T02:30:20.383Z,19.97
2018-05-25T02:32:49.414Z,19.90
2018-05-25T02:35:17.710Z,22.10
2018-05-25T02:37:46.002Z,21.27
2018-05-25T02:40:14.283Z,20.17
2018-05-25T02:42:42.565Z,23.17
2018-05-25T02:45:10.828Z,20.03
2018-05-25T02:47:39.098Z,21.43
2018-05-25T02:50:07.382Z,21.73
2018-05-25T02:52:35.659Z,20.30
2018-05-25T02:55:04.002Z,21.13
2018-05-25T02:57:32.270Z,21.60
2018-05-25T03:00:00.543Z,20.60
2018-05-25T03:02:28.822Z,23.33
2018-05-25T03:04:57.083Z,22.27
2018-05-25T03:07:26.126Z,21.57
2018-05-25T03:09:54.382Z,21.87
2018-05-25T03:12:22.682Z,21.00
2018-05-25T03:14:50.973Z,23.30
2018-05-25T03:17:19.271Z,23.07
2018-05-25T03:19:49.985Z,22.07
2018-05-25T03:22:18.253Z,24.73
2018-05-25T03:24:46.499Z,21.00
2018-05-25T03:27:14.771Z,22.50
2018-05-25T03:29:43.097Z,23.20
2018-05-25T03:32:11.784Z,21.00
2018-05-25T03:34:40.243Z,22.97
2018-05-25T03:37:08.533Z,21.70
2018-05-25T03:39:36.768Z,20.57
2018-05-25T03:42:05.978Z,21.03
2018-05-25T03:44:35.019Z,25.70
2018-05-25T03:47:03.302Z,23.90
2018-05-25T03:49:31.573Z,25.23
2018-05-25T03:51:59.819Z,22.83
2018-05-25T03:54:38.704Z,22.73
2018-05-25T04:00:25.922Z,19.67
2018-05-25T04:02:55.897Z,18.97
2018-05-25T04:05:24.262Z,20.27
2018-05-25T04:07:53.329Z,21.03
2018-05-25T04:10:22.397Z,20.60
2018-05-25T04:12:50.683Z,18.37
2018-05-25T04:15:18.942Z,18.90
2018-05-25T04:17:47.263Z,18.70
2018-05-25T04:20:18.845Z,19.33
2018-05-25T04:22:47.259Z,22.23
2018-05-25T04:25:17.472Z,20.63
2018-05-25T04:27:50.064Z,21.97
2018-05-25T04:30:20.413Z,21.70
2018-05-25T04:32:52.019Z,22.63
2018-05-25T04:35:27.355Z,20.13
2018-05-25T04:40:42.256Z,22.27
2018-05-25T04:43:11.495Z,19.87
2018-05-25T04:45:40.560Z,21.50
2018-05-25T04:48:08.882Z,22.00
2018-05-25T04:50:37.179Z,19.90
2018-05-25T04:53:05.493Z,20.83
2018-05-25T04:55:33.744Z,20.70
2018-05-25T04:58:02.060Z,18.93
2018-05-25T05:00:31.089Z,18.73
2018-05-25T05:02:59.369Z,21.07
2018-05-25T05:05:27.638Z,17.70
2018-05-25T05:07:55.901Z,21.70
2018-05-25T05:10:24.923Z,20.37
2018-05-25T05:12:53.178Z,18.77
2018-05-25T05:15:21.467Z,19.93
2018-05-25T05:17:49.755Z,19.83
2018-05-25T05:20:18.043Z,20.27
2018-05-25T05:22:46.362Z,22.87
2018-05-25T05:25:15.423Z,19.67
2018-05-25T05:27:43.685Z,18.40
2018-05-25T05:30:12.002Z,18.97
2018-05-25T05:32:40.303Z,19.57
2018-05-25T05:35:09.371Z,19.50
2018-05-25T05:37:38.482Z,18.73
2018-05-25T05:40:07.523Z,21.00
2018-05-25T05:42:35.817Z,23.03
2018-05-25T05:45:04.129Z,21.70
2018-05-25T05:47:33.189Z,21.50
2018-05-25T05:50:01.460Z,20.67
2018-05-25T05:52:29.744Z,21.47
2018-05-25T05:54:58.062Z,22.37
2018-05-25T05:57:27.118Z,21.00
2018-05-25T05:59:55.396Z,20.53
2018-05-25T06:02:23.710Z,18.90
2018-05-25T06:04:52.839Z,17.93
2018-05-25T06:07:21.143Z,17.53
2018-05-25T06:09:49.408Z,17.70
2018-05-25T06:12:17.767Z,17.67
2018-05-25T06:14:46.039Z,18.60
2018-05-25T06:17:14.355Z,17.53
2018-05-25T06:19:42.699Z,18.97
2018-05-25T06:22:10.989Z,17.37
2018-05-25T06:24:39.264Z,18.37
2018-05-25T06:27:07.563Z,19.57
2018-05-25T06:29:36.286Z,20.00
2018-05-25T06:32:04.627Z,16.37
2018-05-25T06:34:32.925Z,18.27
2018-05-25T06:37:01.232Z,15.83
2018-05-25T06:39:30.319Z,17.30
2018-05-25T06:41:59.343Z,15.43
2018-05-25T06:44:27.708Z,17.10
2018-05-25T06:46:56.774Z,16.50
2018-05-25T06:49:25.066Z,16.37
2018-05-25T06:51:54.170Z,15.03
2018-05-25T06:54:23.238Z,17.43
2018-05-25T06:56:51.526Z,17.83
2018-05-25T06:59:20.688Z,15.07
2018-05-25T07:01:48.949Z,15.83
2018-05-25T07:04:17.222Z,15.53
2018-05-25T07:06:45.488Z,18.43
2018-05-25T07:09:13.817Z,15.53
2018-05-25T07:11:42.177Z,14.70
2018-05-25T07:14:10.464Z,15.20
2018-05-25T07:16:38.778Z,16.07
2018-05-25T07:19:07.814Z,14.67
2018-05-25T07:21:36.101Z,15.20
2018-05-25T07:24:04.490Z,14.87
2018-05-25T07:26:32.794Z,14.27
2018-05-25T07:29:01.868Z,15.43
2018-05-25T07:31:30.195Z,14.97
2018-05-25T07:33:58.549Z,13.90
2018-05-25T07:36:27.619Z,14.20
2018-05-25T07:38:55.943Z,13.23
2018-05-25T07:41:24.216Z,13.73
2018-05-25T07:43:53.258Z,16.13
2018-05-25T07:46:21.559Z,13.27
2018-05-25T07:48:49.837Z,14.20
2018-05-25T07:51:18.148Z,13.83
2018-05-25T07:53:46.418Z,14.43
2018-05-25T07:56:14.700Z,13.70
2018-05-25T07:58:43.078Z,15.30
2018-05-25T08:01:11.386Z,15.45
2018-05-25T08:03:39.714Z,13.40
2018-05-25T08:06:08.806Z,14.15
2018-05-25T08:08:37.864Z,13.07
2018-05-25T08:11:06.174Z,13.90
2018-05-25T08:13:35.371Z,13.50
2018-05-25T08:16:03.662Z,14.40
2018-05-25T08:18:32.749Z,14.82
2018-05-25T08:21:01.859Z,13.88
2018-05-25T08:23:30.125Z,13.68
2018-05-25T08:25:59.156Z,14.13
2018-05-25T08:28:27.479Z,14.18
2018-05-25T08:30:55.814Z,13.65
2018-05-25T08:33:24.084Z,14.55
2018-05-25T08:35:52.344Z,13.95
2018-05-25T08:38:21.422Z,14.52
2018-05-25T08:40:50.465Z,14.77
2018-05-25T08:43:18.845Z,13.93
2018-05-25T08:45:47.178Z,13.95
2018-05-25T08:48:16.263Z,14.27
2018-05-25T08:50:45.323Z,13.13
2018-05-25T08:53:13.643Z,15.60
2018-05-25T08:55:42.693Z,13.35
2018-05-25T08:58:11.007Z,13.77
2018-05-25T09:00:39.291Z,14.43
2018-05-25T09:03:08.436Z,14.02
2018-05-25T09:05:36.864Z,14.73
2018-05-25T09:08:05.948Z,14.27
2018-05-25T09:10:34.995Z,13.70
2018-05-25T09:13:04.400Z,14.07
2018-05-25T09:15:32.687Z,14.32
2018-05-25T09:18:00.953Z,15.13
2018-05-25T09:20:29.830Z,14.10
2018-05-25T09:22:58.745Z,13.85
2018-05-25T09:25:28.120Z,15.07
2018-05-25T09:27:56.419Z,15.60
2018-05-25T09:30:24.739Z,16.42
2018-05-25T09:32:53.196Z,14.75
2018-05-25T09:35:22.276Z,14.38
2018-05-25T09:37:50.545Z,13.98
2018-05-25T09:40:18.789Z,13.80
2018-05-25T09:42:47.872Z,14.02
2018-05-25T09:45:16.148Z,13.95
2018-05-25T09:47:44.461Z,14.15
2018-05-25T09:50:13.035Z,14.70
2018-05-25T09:52:41.474Z,14.00
2018-05-25T09:55:09.847Z,14.55
2018-05-25T09:57:38.201Z,13.80
2018-05-25T10:00:06.544Z,13.60
2018-05-25T10:02:35.606Z,15.05
2018-05-25T10:05:03.935Z,13.57
2018-05-25T10:07:32.289Z,14.60
2018-05-25T10:10:01.382Z,13.18
2018-05-25T10:12:30.443Z,12.77
2018-05-25T10:14:58.763Z,12.30
2018-05-25T10:17:27.815Z,12.00
2018-05-25T10:19:57.079Z,12.05
2018-05-25T10:22:26.048Z,12.25
2018-05-25T10:24:55.112Z,13.68
2018-05-25T10:27:23.393Z,13.82
2018-05-25T10:29:51.670Z,13.32
2018-05-25T10:32:19.962Z,11.43
2018-05-25T10:34:49.014Z,12.23
2018-05-25T10:37:17.343Z,12.45
2018-05-25T10:39:46.397Z,13.25
2018-05-25T10:42:14.672Z,11.38
2018-05-25T10:44:42.979Z,12.60
2018-05-25T10:47:11.258Z,12.45
2018-05-25T10:49:40.311Z,11.57
2018-05-25T10:52:08.605Z,12.52
2018-05-25T10:54:36.884Z,12.13
2018-05-25T10:57:05.174Z,11.95
2018-05-25T10:59:33.473Z,11.60
2018-05-25T11:02:02.565Z,10.85
2018-05-25T11:04:31.616Z,11.57
2018-05-25T11:06:59.931Z,12.63
2018-05-25T11:09:29.019Z,11.32
2018-05-25T11:11:58.074Z,12.13
2018-05-25T11:14:26.404Z,12.68
2018-05-25T11:16:55.484Z,12.85
2018-05-25T11:19:23.951Z,12.30
2018-05-25T11:21:52.305Z,13.05
2018-05-25T11:24:20.642Z,12.75
2018-05-25T11:26:49.736Z,12.68
2018-05-25T11:29:18.822Z,14.13
2018-05-25T11:31:47.990Z,12.37
2018-05-25T11:34:16.263Z,11.77
2018-05-25T11:36:44.524Z,10.48
2018-05-25T11:39:12.934Z,12.43
2018-05-25T11:41:41.207Z,11.43
2018-05-25T11:44:09.479Z,10.15
2018-05-25T11:46:37.749Z,10.63
2018-05-25T11:49:06.063Z,11.30
2018-05-25T11:51:35.100Z,12.32
2018-05-25T11:54:03.377Z,9.35
2018-05-25T11:56:31.643Z,9.57
2018-05-25T11:58:59.910Z,9.43
2018-05-25T12:01:28.185Z,9.73
2018-05-25T12:03:56.478Z,9.52
2018-05-25T12:06:24.779Z,9.18
2018-05-25T12:08:53.103Z,9.05
2018-05-25T12:11:22.134Z,9.23
2018-05-25T12:13:50.412Z,7.55
2018-05-25T12:16:18.714Z,8.95
2018-05-25T12:18:46.998Z,8.73
2018-05-25T12:21:15.258Z,7.97
2018-05-25T12:23:43.551Z,8.63
2018-05-25T12:26:11.866Z,10.05
2018-05-25T12:28:40.198Z,10.30
2018-05-25T12:31:08.480Z,8.77
2018-05-25T12:33:36.834Z,8.48
2018-05-25T12:36:05.149Z,8.25
2018-05-25T12:38:34.310Z,8.68
2018-05-25T12:41:02.608Z,6.37
2018-05-25T12:43:30.893Z,5.85
2018-05-25T12:45:59.953Z,5.30
2018-05-25T12:48:28.218Z,9.25
2018-05-25T12:50:56.504Z,8.48
2018-05-25T12:53:25.572Z,5.75
2018-05-25T12:55:54.560Z,5.50
2018-05-25T12:58:23.627Z,7.10
2018-05-25T13:00:51.915Z,6.87
2018-05-25T13:03:20.235Z,7.90
2018-05-25T13:05:48.542Z,7.32
2018-05-25T13:08:16.823Z,7.95
2018-05-25T13:10:45.107Z,7.15
2018-05-25T13:13:13.418Z,6.10
2018-05-25T13:15:42.496Z,5.90
2018-05-25T13:18:10.778Z,6.80
2018-05-25T13:20:39.833Z,6.90
2018-05-25T13:23:08.094Z,7.57
2018-05-25T13:25:36.351Z,8.68
2018-05-25T13:28:04.607Z,5.85
2018-05-25T13:30:33.652Z,5.82
2018-05-25T13:33:01.950Z,7.25
2018-05-25T13:35:30.205Z,6.57
2018-05-25T13:37:58.523Z,7.03
2018-05-25T13:40:26.781Z,7.20
2018-05-25T13:42:55.099Z,9.32
2018-05-25T13:45:23.353Z,8.05
2018-05-25T13:47:51.699Z,8.15
2018-05-25T13:50:19.959Z,6.53
2018-05-25T13:52:48.281Z,8.82
2018-05-25T13:55:16.684Z,6.10
2018-05-25T13:57:45.762Z,9.68
2018-05-25T14:00:14.032Z,6.72
2018-05-25T14:02:42.339Z,6.25
2018-05-25T14:05:11.399Z,5.62
2018-05-25T14:07:39.699Z,5.90
2018-05-25T14:10:08.759Z,8.00
2018-05-25T14:12:37.053Z,8.57
2018-05-25T14:15:05.369Z,9.05
2018-05-25T14:17:33.639Z,8.70
2018-05-25T14:20:01.979Z,8.00
2018-05-25T14:22:30.301Z,7.85
2018-05-25T14:24:58.616Z,8.65
2018-05-25T14:27:26.915Z,7.03
2018-05-25T14:29:55.198Z,8.02
2018-05-25T14:32:23.497Z,9.13
2018-05-25T14:34:52.601Z,8.55
2018-05-25T14:37:20.900Z,9.63
2018-05-25T14:39:49.150Z,9.13
2018-05-25T14:42:18.174Z,9.32
2018-05-25T14:44:47.187Z,8.70
2018-05-25T14:47:15.517Z,8.25
2018-05-25T14:49:45.854Z,7.25
2018-05-25T14:52:14.125Z,7.57
2018-05-25T14:54:42.397Z,7.85
2018-05-25T14:57:10.700Z,7.90
2018-05-25T14:59:39.015Z,7.60
2018-05-25T15:02:07.279Z,7.78
2018-05-25T15:04:35.558Z,7.70
2018-05-25T15:07:03.876Z,8.23
2018-05-25T15:09:32.161Z,8.82
2018-05-25T15:12:01.268Z,6.87
2018-05-25T15:14:29.583Z,7.07
2018-05-25T15:16:57.862Z,7.00
2018-05-25T15:19:26.202Z,8.30
2018-05-25T15:21:54.457Z,8.27
2018-05-25T15:24:23.545Z,7.65
2018-05-25T15:26:52.603Z,8.00
2018-05-25T15:29:20.902Z,5.95
2018-05-25T15:31:49.200Z,8.32
2018-05-25T15:34:18.254Z,5.93
2018-05-25T15:36:46.548Z,5.53
2018-05-25T15:39:14.848Z,6.00
2018-05-25T15:41:43.918Z,4.82
2018-05-25T15:44:12.262Z,5.32
2018-05-25T15:46:40.530Z,5.60
2018-05-25T15:49:08.795Z,7.05
2018-05-25T15:51:37.104Z,5.87
2018-05-25T15:54:05.463Z,5.20
2018-05-25T15:56:33.739Z,6.72
2018-05-25T15:59:02.029Z,4.78
2018-05-25T16:01:30.298Z,4.80
2018-05-25T16:03:58.555Z,6.65
2018-05-25T16:06:26.844Z,5.03
2018-05-25T16:08:55.184Z,4.95
2018-05-25T16:11:24.230Z,7.45
2018-05-25T16:13:52.575Z,4.75
2018-05-25T16:16:21.617Z,7.03
2018-05-25T16:18:49.862Z,6.28
2018-05-25T16:21:18.140Z,6.37
2018-05-25T16:23:46.409Z,5.40
2018-05-25T16:26:14.650Z,7.70
2018-05-25T16:28:42.947Z,6.12
2018-05-25T16:31:11.991Z,11.15
2018-05-25T16:33:40.271Z,5.97
2018-05-25T16:36:08.528Z,8.10
2018-05-25T16:38:36.856Z,7.95
2018-05-25T16:41:05.889Z,5.55
2018-05-25T16:43:34.179Z,7.70
2018-05-25T16:46:02.475Z,5.50
2018-05-25T16:48:30.759Z,6.60
2018-05-25T16:50:59.048Z,5.90
2018-05-25T16:53:27.320Z,4.70
2018-05-25T16:55:55.593Z,5.35
2018-05-25T16:58:23.903Z,5.43
2018-05-25T17:00:52.952Z,5.95
2018-05-25T17:03:21.210Z,6.68
2018-05-25T17:05:49.541Z,7.53
2018-05-25T17:08:18.597Z,6.78
2018-05-25T17:10:46.883Z,5.90
2018-05-25T17:13:15.151Z,7.12
2018-05-25T17:15:43.435Z,6.95
2018-05-25T17:18:11.730Z,6.80
2018-05-25T17:20:40.039Z,5.70
2018-05-25T17:23:08.347Z,6.57
2018-05-25T17:25:36.620Z,5.80
2018-05-25T17:28:04.918Z,5.78
2018-05-25T17:30:33.230Z,6.25
2018-05-25T17:33:01.465Z,5.30
2018-05-25T17:35:29.758Z,9.73
2018-05-25T17:37:58.124Z,6.68
2018-05-25T17:40:26.376Z,6.05
2018-05-25T17:42:55.402Z,5.45
2018-05-25T17:45:23.727Z,6.45
2018-05-25T17:47:52.040Z,5.65
2018-05-25T17:50:20.304Z,5.87
2018-05-25T17:52:48.582Z,7.72
2018-05-25T17:55:16.901Z,7.50
2018-05-25T17:57:45.204Z,6.72
2018-05-25T18:00:14.212Z,7.47
2018-05-25T18:02:42.499Z,6.40
2018-05-25T18:05:11.595Z,5.80
2018-05-25T18:07:39.910Z,6.20
2018-05-25T18:10:08.223Z,7.35
2018-05-25T18:12:37.349Z,6.80
2018-05-25T18:15:05.643Z,5.72
2018-05-25T18:17:33.924Z,7.20
2018-05-25T18:20:02.266Z,5.40
2018-05-25T18:22:30.537Z,5.75
2018-05-25T18:24:59.627Z,7.53
2018-05-25T18:27:35.498Z,6.47
2018-05-25T18:30:03.859Z,7.45
2018-05-25T18:32:34.204Z,7.85
2018-05-25T18:35:02.556Z,8.90
2018-05-25T18:40:57.858Z,7.22
2018-05-25T18:43:26.132Z,6.60
2018-05-25T18:45:54.374Z,8.80
2018-05-25T18:48:22.675Z,6.18
2018-05-25T18:50:54.769Z,6.15
2018-05-25T18:53:23.054Z,7.35
2018-05-25T18:55:52.098Z,7.57
2018-05-25T18:58:20.363Z,8.63
2018-05-25T19:00:48.614Z,6.68
2018-05-25T19:03:17.669Z,6.78
2018-05-25T19:05:46.022Z,7.43
2018-05-25T19:08:14.308Z,8.35
2018-05-25T19:10:42.699Z,7.78
2018-05-25T19:13:11.042Z,7.15
2018-05-25T19:15:39.318Z,7.05
2018-05-25T19:18:07.603Z,8.05
2018-05-25T19:20:35.887Z,6.95
2018-05-25T19:23:04.219Z,6.90
2018-05-25T19:25:33.298Z,7.07
2018-05-25T19:28:01.590Z,7.57
2018-05-25T19:30:30.733Z,6.72
2018-05-25T19:32:59.099Z,6.97
2018-05-25T19:35:27.396Z,7.25
2018-05-25T19:37:55.704Z,6.47
2018-05-25T19:40:24.016Z,7.50
2018-05-25T19:42:53.113Z,9.18
2018-05-25T19:45:22.265Z,8.18
2018-05-25T19:47:50.503Z,8.35
2018-05-25T19:50:18.805Z,9.48
2018-05-25T19:52:47.129Z,7.80
2018-05-25T19:55:16.241Z,7.97
2018-05-25T19:57:44.612Z,7.95
2018-05-25T20:00:13.683Z,8.00
2018-05-25T20:02:41.984Z,7.78
2018-05-25T20:05:11.012Z,7.50
2018-05-25T20:07:39.326Z,7.72
2018-05-25T20:10:07.645Z,8.30
2018-05-25T20:12:35.993Z,8.57
2018-05-25T20:15:05.029Z,8.25
2018-05-25T20:17:33.335Z,7.55
2018-05-25T20:20:02.263Z,9.13
2018-05-25T20:22:31.320Z,7.47
2018-05-25T20:25:00.520Z,7.62
2018-05-25T20:27:28.824Z,8.07
2018-05-25T20:29:57.171Z,7.90
2018-05-25T20:32:25.475Z,8.60
2018-05-25T20:34:53.790Z,8.10
2018-05-25T20:37:22.084Z,8.10
2018-05-25T20:39:50.358Z,7.97
2018-05-25T20:42:18.701Z,8.82
2018-05-25T20:44:47.742Z,8.40
2018-05-25T20:47:16.139Z,8.55
2018-05-25T20:49:44.491Z,9.70
2018-05-25T20:52:12.768Z,8.35
2018-05-25T20:54:41.038Z,8.38
2018-05-25T20:57:09.318Z,9.50
2018-05-25T20:59:37.619Z,9.02
2018-05-25T21:02:05.943Z,8.90
2018-05-25T21:04:34.980Z,8.88
2018-05-25T21:07:03.323Z,9.75
2018-05-25T21:09:32.513Z,9.48
2018-05-25T21:12:00.870Z,9.73
2018-05-25T21:14:29.165Z,9.40
2018-05-25T21:16:58.249Z,9.57
2018-05-25T21:19:26.575Z,12.53
2018-05-25T21:21:54.955Z,9.57
2018-05-25T21:24:23.255Z,9.30
2018-05-25T21:26:51.575Z,11.60
2018-05-25T21:29:20.654Z,9.75
2018-05-25T21:31:48.963Z,10.00
2018-05-25T21:34:18.013Z,13.57
2018-05-25T21:36:46.319Z,10.15
2018-05-25T21:39:15.424Z,9.48
2018-05-25T21:41:44.467Z,10.55
2018-05-25T21:44:12.771Z,10.63
2018-05-25T21:46:41.099Z,10.48
2018-05-25T21:49:10.195Z,9.98
2018-05-25T21:51:38.571Z,10.07
2018-05-25T21:54:06.896Z,10.43
2018-05-25T21:56:35.169Z,10.67
2018-05-25T21:59:03.506Z,11.67
2018-05-25T22:01:31.824Z,12.20
2018-05-25T22:04:00.222Z,12.07
2018-05-25T22:06:28.582Z,11.27
2018-05-25T22:08:56.950Z,11.40
2018-05-25T22:11:25.360Z,10.83
2018-05-25T22:13:54.470Z,11.37
2018-05-25T22:16:23.626Z,11.87
2018-05-25T22:18:51.896Z,12.07
2018-05-25T22:21:20.166Z,12.33
2018-05-25T22:23:48.448Z,12.57
2018-05-25T22:26:16.748Z,12.43
2018-05-25T22:28:45.088Z,12.73
2018-05-25T22:31:13.375Z,13.13
2018-05-25T22:33:41.660Z,15.40
2018-05-25T22:36:10.044Z,13.63
2018-05-25T22:38:38.381Z,13.37
2018-05-25T22:41:06.701Z,14.63
2018-05-25T22:43:52.989Z,14.30
2018-05-25T22:46:38.970Z,14.73
2018-05-25T22:49:25.032Z,15.43
2018-05-25T22:52:11.008Z,14.63
2018-05-25T22:54:43.010Z,14.23
2018-05-25T22:57:11.280Z,14.33
2018-05-25T22:59:39.609Z,14.57
2018-05-25T23:02:07.894Z,15.43
2018-05-25T23:04:36.264Z,14.70
2018-05-25T23:07:04.723Z,14.23
2018-05-25T23:09:33.083Z,15.10
2018-05-25T23:12:01.379Z,15.63
2018-05-25T23:14:29.688Z,16.93
2018-05-25T23:16:58.023Z,16.57
2018-05-25T23:19:26.383Z,16.70
2018-05-25T23:21:54.730Z,16.83
2018-05-25T23:24:23.792Z,17.70
2018-05-25T23:26:52.105Z,16.53
2018-05-25T23:29:21.250Z,16.47
2018-05-25T23:31:49.606Z,16.03
2018-05-25T23:34:17.992Z,16.33
2018-05-25T23:36:46.307Z,16.03
2018-05-25T23:39:15.029Z,17.93
2018-05-25T23:41:44.187Z,19.53
2018-05-25T23:44:12.547Z,18.93
2018-05-25T23:46:40.864Z,16.07
2018-05-25T23:49:09.243Z,16.37
2018-05-25T23:51:37.561Z,16.93
2018-05-25T23:54:05.906Z,16.33
2018-05-25T23:56:35.010Z,16.60
2018-05-25T23:59:04.110Z,16.47
